Time;durP1;ratioP1;P1;durP2;ratioP2;P2;SDS_P1;SDS_P2;PMS_P1;PMS_P2;Temp;Humidity;BMP_temperature;BMP_pressure;BME280_temperature;BME280_humidity;BME280_pressure;Samples;Min_cycle;Max_cycle;Signal;HPM_P1;HPM_P2
2022/10/07 00:13:55;;;;;;;20.70;10.10;;;;;;;9.29;88.54;101726.17;637078;1301;139030;-86
2022/10/07 00:28:59;;;;;;;23.00;12.20;;;;;;;9.16;87.82;101722.52;636893;1313;138690;-85
2022/10/07 00:44:31;;;;;;;29.10;13.40;;;;;;;9.05;88.74;101716.73;636975;1310;139078;-85
2022/10/07 00:59:36;;;;;;;24.90;11.30;;;;;;;8.78;88.31;101706.09;638392;1311;139231;-85
2022/10/07 01:15:10;;;;;;;17.20;9.00;;;;;;;8.92;91.17;101697.41;637358;1317;140239;-85
2022/10/07 01:30:14;;;;;;;15.20;7.80;;;;;;;8.98;92.11;101697.94;637235;1316;139933;-84
2022/10/07 01:45:20;;;;;;;15.60;8.30;;;;;;;8.90;92.44;101698.08;637699;1317;138708;-84
2022/10/07 02:00:24;;;;;;;20.20;10.30;;;;;;;8.73;93.48;101689.80;638156;1308;138923;-84
2022/10/07 02:15:37;;;;;;;17.10;9.60;;;;;;;8.63;93.94;101689.31;637082;1294;138695;-84
2022/10/07 02:30:44;;;;;;;17.70;9.10;;;;;;;8.52;94.45;101684.89;637328;1311;139217;-85
2022/10/07 02:46:16;;;;;;;24.00;12.00;;;;;;;8.43;94.74;101684.70;637014;1316;138867;-85
2022/10/07 03:01:26;;;;;;;25.80;11.80;;;;;;;8.44;94.96;101682.36;639036;1314;139311;-85
2022/10/07 03:16:31;;;;;;;18.50;10.00;;;;;;;8.37;96.25;101680.97;637996;1304;139604;-84
2022/10/07 03:31:36;;;;;;;23.60;11.70;;;;;;;8.32;96.90;101676.59;637501;1308;139210;-85
2022/10/07 03:46:39;;;;;;;28.40;10.50;;;;;;;8.25;97.42;101670.34;637953;1316;141323;-84
2022/10/07 04:01:43;;;;;;;23.20;13.30;;;;;;;8.23;97.25;101663.16;638228;1316;139349;-85
2022/10/07 04:16:46;;;;;;;22.60;12.70;;;;;;;8.18;97.45;101663.75;637667;1314;139673;-85
2022/10/07 04:31:50;;;;;;;25.70;13.50;;;;;;;8.05;97.34;101656.09;639419;1294;139099;-84
2022/10/07 04:46:55;;;;;;;25.70;12.80;;;;;;;7.90;98.61;101644.01;641230;1299;140022;-84
2022/10/07 05:02:00;;;;;;;31.00;15.50;;;;;;;7.81;99.48;101639.48;640683;1316;138526;-84
2022/10/07 05:17:05;;;;;;;30.70;17.40;;;;;;;7.83;99.99;101635.70;640667;1314;138516;-85
2022/10/07 05:32:09;;;;;;;26.80;16.20;;;;;;;8.02;99.95;101640.23;637890;1316;138513;-85
2022/10/07 05:47:13;;;;;;;31.30;15.00;;;;;;;8.18;99.87;101643.17;637543;1300;138532;-85
2022/10/07 06:02:17;;;;;;;32.90;17.10;;;;;;;8.40;99.71;101644.03;637742;1308;138593;-86
2022/10/07 06:17:21;;;;;;;74.30;27.80;;;;;;;8.83;99.84;101651.19;638168;1313;138879;-85
2022/10/07 06:32:29;;;;;;;28.80;15.10;;;;;;;10.17;99.32;101656.24;640899;1302;139004;-86
2022/10/07 06:47:33;;;;;;;35.90;15.80;;;;;;;11.46;97.64;101663.77;641824;1298;1005858;-87
2022/10/07 07:02:36;;;;;;;19.00;11.20;;;;;;;12.80;95.61;101673.44;641064;1304;139139;-86
2022/10/07 07:17:40;;;;;;;18.30;10.10;;;;;;;14.14;94.20;101670.71;640851;1305;138936;-85
2022/10/07 07:32:46;;;;;;;19.00;8.50;;;;;;;15.28;89.69;101668.41;640275;1304;140748;-85
2022/10/07 07:47:49;;;;;;;18.90;8.70;;;;;;;15.03;83.47;101662.88;646461;1303;139132;-83
2022/10/07 08:02:53;;;;;;;16.80;7.50;;;;;;;15.42;81.27;101665.21;645627;1310;139266;-86
2022/10/07 08:17:58;;;;;;;14.70;8.30;;;;;;;16.00;79.12;101660.32;640791;1304;138728;-86
2022/10/07 08:33:01;;;;;;;11.70;6.00;;;;;;;16.61;77.84;101644.77;644477;1295;139742;-84
2022/10/07 08:48:21;;;;;;;11.40;5.60;;;;;;;17.41;75.37;101636.97;641050;1303;140583;-85
2022/10/07 09:03:43;;;;;;;10.70;5.10;;;;;;;17.83;73.13;101626.61;647170;1295;139304;-83
2022/10/07 09:18:52;;;;;;;15.20;4.30;;;;;;;18.62;70.16;101617.27;645912;1310;140575;-83
2022/10/07 09:33:55;;;;;;;10.10;3.50;;;;;;;18.91;66.44;101605.09;645398;1310;138494;-83
2022/10/07 09:49:03;;;;;;;11.60;3.60;;;;;;;18.96;65.17;101585.59;644110;1289;140051;-84
2022/10/07 10:04:25;;;;;;;5.20;3.00;;;;;;;19.82;62.67;101567.94;640354;1298;139142;-83
2022/10/07 10:19:29;;;;;;;6.60;3.00;;;;;;;20.02;61.38;101550.72;641248;1297;139243;-83
2022/10/07 10:35:13;;;;;;;8.00;2.60;;;;;;;20.39;59.38;101533.54;640761;1302;139596;-83
2022/10/07 10:50:27;;;;;;;4.60;2.30;;;;;;;20.55;57.00;101513.98;641138;1309;138878;-84
2022/10/07 11:05:35;;;;;;;7.00;3.00;;;;;;;21.01;55.83;101490.88;641045;1306;138441;-84
2022/10/07 11:20:47;;;;;;;7.60;2.50;;;;;;;21.19;55.40;101461.83;640511;1304;138443;-84
2022/10/07 11:35:56;;;;;;;2.80;1.70;;;;;;;21.45;53.11;101437.48;640354;1309;138365;-83
2022/10/07 11:51:03;;;;;;;7.90;2.40;;;;;;;21.47;52.91;101402.02;640562;1310;139805;-84
2022/10/07 12:06:11;;;;;;;6.90;2.20;;;;;;;21.86;51.87;101376.66;641033;1310;138809;-84
2022/10/07 12:21:15;;;;;;;5.10;1.80;;;;;;;22.27;50.09;101355.90;640936;1298;138233;-84
2022/10/07 12:36:22;;;;;;;4.40;1.90;;;;;;;22.24;49.28;101331.44;641446;1310;138747;-84
2022/10/07 12:51:38;;;;;;;7.10;3.00;;;;;;;22.40;48.80;101306.16;640878;1297;138162;-84
2022/10/07 13:07:17;;;;;;;6.00;2.90;;;;;;;22.75;48.08;101282.67;641854;1310;138269;-85
2022/10/07 13:22:23;;;;;;;6.70;2.30;;;;;;;23.47;48.03;101260.48;640252;1295;139826;-82
2022/10/07 13:37:35;;;;;;;4.40;1.80;;;;;;;30.41;42.84;101228.58;638729;1298;140455;-82
2022/10/07 13:52:45;;;;;;;4.80;2.40;;;;;;;32.89;37.04;101201.60;640555;1291;139976;-82
2022/10/07 14:07:57;;;;;;;5.70;1.90;;;;;;;33.66;36.47;101179.14;642832;1298;138054;-83
2022/10/07 14:23:04;;;;;;;11.40;5.70;;;;;;;34.52;36.37;101153.21;640756;1305;138792;-82
2022/10/07 14:38:18;;;;;;;;;;;;;;;34.40;36.13;101130.96;640070;1305;138563;-83
2022/10/07 14:53:21;;;;;;;4.10;2.20;;;;;;;35.21;36.16;101105.77;639715;1307;125091;-82
2022/10/07 15:08:25;;;;;;;8.70;6.00;;;;;;;30.82;39.39;101076.84;639826;1291;140259;-82
2022/10/07 15:23:29;;;;;;;5.00;4.00;;;;;;;25.70;44.58;101051.09;640532;1312;137845;-83
2022/10/07 15:38:32;;;;;;;2.90;1.60;;;;;;;27.63;44.72;101029.69;643404;1293;138578;-82
2022/10/07 15:53:35;;;;;;;9.90;5.80;;;;;;;27.74;43.38;101014.19;637813;1293;137983;-82
2022/10/07 16:08:38;;;;;;;52.60;20.50;;;;;;;22.75;47.25;100998.55;638162;1299;139463;-83
2022/10/07 16:23:44;;;;;;;50.60;18.80;;;;;;;19.32;52.24;100979.92;638455;1294;139517;-82
2022/10/07 16:38:50;;;;;;;44.80;20.10;;;;;;;17.48;56.45;100973.37;638949;1297;138301;-83
2022/10/07 16:54:01;;;;;;;73.70;40.60;;;;;;;16.28;59.71;100964.02;638715;1298;139229;-83
2022/10/07 17:09:05;;;;;;;153.70;58.40;;;;;;;15.41;62.67;100957.78;639157;1294;138439;-81
2022/10/07 17:24:09;;;;;;;64.90;32.90;;;;;;;14.82;64.86;100950.63;639346;1313;138607;-81
2022/10/07 17:39:13;;;;;;;41.80;19.80;;;;;;;14.53;67.20;100930.58;637951;1313;138292;-82
2022/10/07 17:54:17;;;;;;;36.00;17.00;;;;;;;14.18;68.87;100922.99;638353;1313;139297;-82
2022/10/07 18:21:57;;;;;;;81.70;38.60;;;;;;;13.76;71.50;100912.93;624060;1332;1187292;-81
2022/10/07 18:37:01;;;;;;;69.30;33.00;;;;;;;13.42;72.25;100895.96;633481;1303;140847;-83
2022/10/07 18:52:06;;;;;;;80.70;39.90;;;;;;;13.14;72.38;100884.71;633186;1314;138211;-82
2022/10/07 19:07:09;;;;;;;127.50;56.60;;;;;;;12.74;73.25;100873.76;632680;1317;139997;-82
2022/10/07 19:22:15;;;;;;;172.80;77.00;;;;;;;12.40;74.27;100855.27;634037;1313;138443;-82
2022/10/07 19:37:20;;;;;;;240.10;106.90;;;;;;;12.11;75.25;100844.41;633222;1310;139161;-81
2022/10/07 19:52:25;;;;;;;296.50;128.40;;;;;;;11.88;76.26;100832.29;634650;1314;139213;-81
2022/10/07 20:07:28;;;;;;;366.10;152.80;;;;;;;11.77;76.92;100822.20;632658;1308;139942;-80
2022/10/07 20:22:33;;;;;;;366.60;145.90;;;;;;;11.58;78.10;100813.07;632295;1307;141499;-83
2022/10/07 20:37:37;;;;;;;348.40;145.00;;;;;;;11.38;78.30;100800.20;632821;1308;139545;-81
2022/10/07 20:52:40;;;;;;;280.50;118.90;;;;;;;11.28;79.10;100791.55;637314;1314;139683;-81
2022/10/07 21:07:44;;;;;;;186.90;87.60;;;;;;;11.24;80.39;100779.97;633660;1313;140284;-82
2022/10/07 21:22:48;;;;;;;198.30;88.20;;;;;;;11.46;81.42;100762.73;632045;1316;140648;-81
2022/10/07 21:37:52;;;;;;;140.50;64.90;;;;;;;11.58;81.91;100754.60;633058;1307;140280;-82
2022/10/07 21:52:55;;;;;;;159.60;70.10;;;;;;;11.86;82.97;100744.50;642059;1298;140179;-81
2022/10/07 22:23:20;;;;;;;192.00;87.30;;;;;;;12.21;84.23;100693.50;641041;1303;140562;-82
2022/10/07 22:38:24;;;;;;;207.10;86.10;;;;;;;12.26;85.29;100669.86;640592;1313;139399;-82
2022/10/07 22:53:27;;;;;;;161.10;70.70;;;;;;;12.47;86.05;100647.48;641277;1298;139426;-82
2022/10/07 23:08:31;;;;;;;183.60;79.80;;;;;;;12.67;87.81;100631.48;640289;1303;140950;-82
2022/10/07 23:23:36;;;;;;;189.50;84.80;;;;;;;12.78;88.64;100618.69;640081;1304;140349;-83
2022/10/07 23:38:45;;;;;;;111.50;54.40;;;;;;;12.85;89.27;100613.35;640821;1306;141503;-82
2022/10/07 23:53:49;;;;;;;61.10;33.40;;;;;;;13.05;91.49;100588.23;640588;1298;139353;-83
